M I D A S
Marine Information and Data Acquisition System
Tripno 1403 of the Zeeleeuw from 2007-11-20 08:30:43 to 2007-11-20 17:03:29
Back to CruiseResearch ActivitiesStationsMapUnderway DataData graphs

EquipmentUnitsComment
TimeDGPSUTC
LatitudeDGPSDM.mWGS84
LongitudeDGPSDM.mWGS84
HeadingGyrodeg 
SOGDGPSknotsSpeed over ground
COGDGPSdegCourse over ground
DepthEcho soundermeters200 kHz
Missing or incorrect values are displayed as -999
Navigation data collected by the RV Zeeleeuw from 2007-11-20 08:29:58 to 2007-11-20 17:13:43
                                                                                    Next 1000 lines
Time Latitude Longitude Heading SOG COG Depth
2007-11-20 08:30:08 51°13.598 2°56.095 111.2 0.5 287 10
2007-11-20 08:30:13 51°13.598 2°56.094 111 0.8 288 9.9
2007-11-20 08:30:18 51°13.599 2°56.092 110.8 1.2 291 9.9
2007-11-20 08:30:23 51°13.602 2°56.09 110.8 1.4 291 10
2007-11-20 08:30:28 51°13.603 2°56.087 111 1.8 291 10
2007-11-20 08:30:33 51°13.604 2°56.082 111.3 2.2 292 5.9
2007-11-20 08:30:38 51°13.606 2°56.077 111.8 2.7 292 -999
2007-11-20 08:30:43 51°13.607 2°56.071 112.3 3.1 292 -999
2007-11-20 08:30:48 51°13.609 2°56.064 112.5 3.4 293 -999
2007-11-20 08:30:53 51°13.611 2°56.056 113 3.7 292 -999
2007-11-20 08:30:58 51°13.613 2°56.048 113.5 4 293 -999
2007-11-20 08:31:03 51°13.616 2°56.04 114.1 4.3 293 -999
2007-11-20 08:31:08 51°13.618 2°56.031 115 4.4 293 -999
2007-11-20 08:31:13 51°13.62 2°56.021 115.7 4.7 294 -999
2007-11-20 08:31:18 51°13.623 2°56.011 116.5 4.9 294 -999
2007-11-20 08:31:23 51°13.626 2°56.001 117.4 5.1 295 -999
2007-11-20 08:31:28 51°13.629 2°55.991 118.3 5.2 296 -999
2007-11-20 08:31:33 51°13.632 2°55.98 119 5.3 296 -999
2007-11-20 08:31:38 51°13.636 2°55.969 119.4 5.4 297 -999
2007-11-20 08:31:43 51°13.639 2°55.959 119.7 5.5 297 -999
2007-11-20 08:31:48 51°13.642 2°55.948 119.9 5.5 298 -999
2007-11-20 08:31:53 51°13.646 2°55.937 120.3 5.6 298 -999
2007-11-20 08:31:58 51°13.649 2°55.926 120.6 5.6 299 -999
2007-11-20 08:32:03 51°13.653 2°55.914 121.1 5.7 298 -999
2007-11-20 08:32:08 51°13.656 2°55.904 121.2 5.6 299 -999
2007-11-20 08:32:13 51°13.66 2°55.893 121.2 5.5 299 -999
2007-11-20 08:32:18 51°13.664 2°55.882 121 5.4 299 -999
2007-11-20 08:32:23 51°13.667 2°55.872 120.6 5.2 299 -999
2007-11-20 08:32:28 51°13.67 2°55.862 120.1 5.1 299 -999
2007-11-20 08:32:33 51°13.673 2°55.852 119.4 4.9 297 -999
2007-11-20 08:32:38 51°13.677 2°55.843 118 4.7 297 -999
2007-11-20 08:32:43 51°13.68 2°55.835 116.6 4.5 295 -999
2007-11-20 08:32:48 51°13.682 2°55.826 115 4.4 295 -999
2007-11-20 08:32:53 51°13.685 2°55.817 113.4 4.2 294 -999
2007-11-20 08:32:58 51°13.687 2°55.809 111.7 4 292 -999
2007-11-20 08:33:03 51°13.689 2°55.801 110.3 3.9 290 -999
2007-11-20 08:33:08 51°13.691 2°55.793 108.6 3.8 290 -999
2007-11-20 08:33:13 51°13.693 2°55.786 107 3.6 289 -999
2007-11-20 08:33:18 51°13.695 2°55.779 105.7 3.5 288 13.3
2007-11-20 08:33:23 51°13.696 2°55.772 104.3 3.3 286 14
2007-11-20 08:33:28 51°13.697 2°55.765 103 3.3 285 14.7
2007-11-20 08:33:33 51°13.698 2°55.758 101.6 3.1 284 14.9
2007-11-20 08:33:38 51°13.699 2°55.751 100.2 3 283 14.7
2007-11-20 08:33:43 51°13.7 2°55.745 99 2.8 283 14.7
2007-11-20 08:33:48 51°13.7 2°55.74 97.3 2.6 282 14.7
2007-11-20 08:33:53 51°13.701 2°55.734 95.8 2.3 280 14.7
2007-11-20 08:33:58 51°13.701 2°55.73 94.3 2 281 14.8
2007-11-20 08:34:03 51°13.701 2°55.726 92.4 1.7 281 15.1
2007-11-20 08:34:08 51°13.702 2°55.723 90.1 1.4 284 15.6
2007-11-20 08:34:13 51°13.702 2°55.721 87.8 1 287 16.5
2007-11-20 08:34:18 51°13.702 2°55.719 84.9 0.8 293 17
2007-11-20 08:34:23 51°13.703 2°55.717 81.6 0.7 298 17.2
2007-11-20 08:34:28 51°13.703 2°55.716 78.2 0.5 316 17.4
2007-11-20 08:34:33 51°13.704 2°55.716 74 0.5 345 -999
2007-11-20 08:34:38 51°13.704 2°55.716 67.9 0.7 11 -999
2007-11-20 08:34:43 51°13.705 2°55.716 62 0.8 19 -999
2007-11-20 08:34:48 51°13.707 2°55.717 56.7 1 22 -999
2007-11-20 08:34:53 51°13.708 2°55.718 52.2 1.2 25 16.3
2007-11-20 08:34:58 51°13.71 2°55.719 48.8 1.4 23 15.1
2007-11-20 08:35:03 51°13.711 2°55.72 44.3 1.6 19 14.3
2007-11-20 08:35:08 51°13.714 2°55.721 38.5 1.7 16 14
2007-11-20 08:35:13 51°13.716 2°55.722 32.7 1.9 13 13.7
2007-11-20 08:35:18 51°13.719 2°55.723 26.9 2 9 13.7
2007-11-20 08:35:23 51°13.722 2°55.724 21.1 2.2 4 13.7
2007-11-20 08:35:28 51°13.725 2°55.724 15.5 2.3 -999 13.6
2007-11-20 08:35:33 51°13.728 2°55.723 10 2.4 357 13.5
2007-11-20 08:35:38 51°13.732 2°55.722 3.6 2.5 351 -999
2007-11-20 08:35:43 51°13.735 2°55.721 358.1 2.7 346 13.7
2007-11-20 08:35:48 51°13.74 2°55.719 352.6 2.8 343 13.5
2007-11-20 08:35:53 51°13.744 2°55.717 348.1 3 337 13.5
2007-11-20 08:35:58 51°13.748 2°55.714 342.9 3.4 335 13.2
2007-11-20 08:36:03 51°13.753 2°55.71 338.9 4 332 13
2007-11-20 08:36:08 51°13.758 2°55.705 336.3 4.6 332 12.8
2007-11-20 08:36:13 51°13.765 2°55.699 335.2 5.1 333 12.7
2007-11-20 08:36:18 51°13.771 2°55.693 335.1 5.6 332 12.7
2007-11-20 08:36:23 51°13.778 2°55.687 335.1 6 332 12.5
2007-11-20 08:36:28 51°13.786 2°55.68 335.1 6.4 333 12.1
2007-11-20 08:36:33 51°13.794 2°55.673 335.2 6.7 332 12.2
2007-11-20 08:36:38 51°13.803 2°55.666 335.3 7.1 333 12.4
2007-11-20 08:36:43 51°13.811 2°55.658 335.3 7.3 332 -999
2007-11-20 08:36:48 51°13.82 2°55.65 335.3 7.5 332 12.3
2007-11-20 08:36:53 51°13.83 2°55.642 335 7.7 331 12.5
2007-11-20 08:36:58 51°13.839 2°55.634 334.7 7.9 331 12.9
2007-11-20 08:37:03 51°13.849 2°55.625 334.7 8 331 12.7
2007-11-20 08:37:08 51°13.858 2°55.616 334.9 8.1 331 12.7
2007-11-20 08:37:13 51°13.868 2°55.608 334.5 8.2 331 12.7
2007-11-20 08:37:18 51°13.878 2°55.599 333.8 8.3 331 13.2
2007-11-20 08:37:23 51°13.889 2°55.59 334.5 8.4 334 12.9
2007-11-20 08:37:28 51°13.899 2°55.581 336 8.5 332 12.9
2007-11-20 08:37:33 51°13.91 2°55.573 336.2 8.5 333 12.7
2007-11-20 08:37:38 51°13.92 2°55.564 336.2 8.6 333 13.1
2007-11-20 08:37:43 51°13.931 2°55.556 336.2 8.6 333 13.1
2007-11-20 08:37:48 51°13.941 2°55.547 336.3 8.5 333 13
2007-11-20 08:37:53 51°13.951 2°55.539 336.3 8.3 333 12.6
2007-11-20 08:37:58 51°13.962 2°55.531 336.4 8.1 334 12.5
2007-11-20 08:38:03 51°13.971 2°55.523 336.6 8 333 12.7
2007-11-20 08:38:08 51°13.981 2°55.515 336.4 7.9 333 12.3
2007-11-20 08:38:13 51°13.991 2°55.507 336.3 7.8 333 12.2
2007-11-20 08:38:18 51°14 2°55.5 337 7.7 334 12.5
2007-11-20 08:38:23 51°14.01 2°55.492 337.5 7.6 334 12.4
2007-11-20 08:38:28 51°14.019 2°55.485 337.7 7.5 335 12
2007-11-20 08:38:33 51°14.028 2°55.478 337.7 7.5 334 11.8
2007-11-20 08:38:38 51°14.038 2°55.471 337.5 7.4 335 11.8
2007-11-20 08:38:43 51°14.047 2°55.464 337.5 7.4 334 11.7
2007-11-20 08:38:48 51°14.056 2°55.457 337.5 7.3 335 12.3
2007-11-20 08:38:53 51°14.065 2°55.449 337.6 7.3 334 12.2
2007-11-20 08:38:58 51°14.074 2°55.442 337.4 7.5 334 11.9
2007-11-20 08:39:03 51°14.084 2°55.434 336.9 7.8 333 11.9
2007-11-20 08:39:08 51°14.094 2°55.426 336.4 8 333 11.4
2007-11-20 08:39:13 51°14.104 2°55.418 336.1 8.2 332 11.4
2007-11-20 08:39:18 51°14.114 2°55.409 335.6 8.3 332 11.3
2007-11-20 08:39:23 51°14.124 2°55.4 335.3 8.5 331 11.6
2007-11-20 08:39:28 51°14.135 2°55.391 334.8 8.7 331 12
2007-11-20 08:39:33 51°14.145 2°55.381 334.7 8.8 331 12.1
2007-11-20 08:39:38 51°14.156 2°55.372 334.5 8.8 330 12.1
2007-11-20 08:39:43 51°14.167 2°55.361 334.3 8.9 328 12.1
2007-11-20 08:39:48 51°14.177 2°55.351 333.1 9 328 12
2007-11-20 08:39:53 51°14.187 2°55.339 331.7 9.1 326 11.8
2007-11-20 08:39:58 51°14.198 2°55.328 330.3 9.2 325 11.6
2007-11-20 08:40:03 51°14.208 2°55.315 328.8 9.6 323 11.6
2007-11-20 08:40:08 51°14.219 2°55.302 327.9 9.7 324 11.8
2007-11-20 08:40:13 51°14.23 2°55.289 327.7 9.9 321 11.8
2007-11-20 08:40:18 51°14.241 2°55.274 326.1 10.1 319 12
2007-11-20 08:40:23 51°14.251 2°55.259 323.7 10.3 318 12
2007-11-20 08:40:28 51°14.262 2°55.243 322.2 10.4 316 12.2
2007-11-20 08:40:33 51°14.272 2°55.227 320.6 10.5 314 12.6
2007-11-20 08:40:38 51°14.282 2°55.209 318.4 10.6 312 12.4
2007-11-20 08:40:43 51°14.291 2°55.192 316.9 10.6 312 12.4
2007-11-20 08:40:48 51°14.301 2°55.174 315.9 10.7 310 12.3
2007-11-20 08:40:53 51°14.31 2°55.155 314.3 10.8 309 12.6
2007-11-20 08:40:58 51°14.32 2°55.136 313.3 11 309 12.8
2007-11-20 08:41:03 51°14.329 2°55.117 313 11.2 308 13
2007-11-20 08:41:08 51°14.339 2°55.097 311.9 11.3 306 13.1
2007-11-20 08:41:13 51°14.347 2°55.076 309.8 11.4 303 12.9
2007-11-20 08:41:18 51°14.356 2°55.054 307.3 11.5 302 12.8
2007-11-20 08:41:23 51°14.365 2°55.032 305.7 11.7 302 12.5
2007-11-20 08:41:28 51°14.373 2°55.01 304.7 12 302 12.3
2007-11-20 08:41:33 51°14.383 2°54.988 304.6 12.2 305 12.2
2007-11-20 08:41:38 51°14.394 2°54.966 306.9 12.3 307 12.4
2007-11-20 08:41:43 51°14.404 2°54.945 308.8 12.5 308 12.5
2007-11-20 08:41:48 51°14.416 2°54.924 309.9 12.5 312 12.6
2007-11-20 08:41:53 51°14.428 2°54.904 311.3 12.5 315 12.8
2007-11-20 08:41:58 51°14.441 2°54.885 313.5 12.4 316 13
2007-11-20 08:42:03 51°14.453 2°54.867 314.9 12.5 318 12.8
2007-11-20 08:42:08 51°14.466 2°54.849 316 12.5 319 12.8
2007-11-20 08:42:13 51°14.48 2°54.831 317.3 12.5 320 12.7
2007-11-20 08:42:18 51°14.493 2°54.813 318.2 12.4 320 12.5
2007-11-20 08:42:23 51°14.506 2°54.796 318.6 12.3 320 12.5
2007-11-20 08:42:28 51°14.519 2°54.779 318.6 12.3 320 12.2
2007-11-20 08:42:33 51°14.533 2°54.762 318.7 12.3 321 12.4
2007-11-20 08:42:38 51°14.546 2°54.745 318.7 12.3 322 12.1
2007-11-20 08:42:43 51°14.559 2°54.728 319.6 12.4 323 11.9
2007-11-20 08:42:48 51°14.574 2°54.712 320.6 12.4 324 11.9
2007-11-20 08:42:53 51°14.588 2°54.697 321.8 12.4 326 11.9
2007-11-20 08:42:58 51°14.602 2°54.682 323.6 12.5 327 11.9
2007-11-20 08:43:03 51°14.617 2°54.668 325.2 12.4 329 11.8
2007-11-20 08:43:08 51°14.632 2°54.654 326.9 12.4 330 11.9
2007-11-20 08:43:13 51°14.647 2°54.64 327.9 12.4 328 11.9
2007-11-20 08:43:18 51°14.661 2°54.625 327.7 12.4 327 11.9
2007-11-20 08:43:23 51°14.675 2°54.61 327 12.3 325 11.8
2007-11-20 08:43:28 51°14.689 2°54.593 325.4 12.3 322 11.8
2007-11-20 08:43:33 51°14.701 2°54.575 322.3 12.2 318 11.9
2007-11-20 08:43:38 51°14.713 2°54.556 318.6 12.1 314 11.8
2007-11-20 08:43:43 51°14.724 2°54.536 314.7 12.1 311 12.1
2007-11-20 08:43:48 51°14.735 2°54.515 311.7 12 308 12
2007-11-20 08:43:53 51°14.744 2°54.493 307.9 12 306 12.1
2007-11-20 08:43:58 51°14.754 2°54.471 305 12 304 11.9
2007-11-20 08:44:03 51°14.763 2°54.45 302.6 11.9 306 12
2007-11-20 08:44:08 51°14.774 2°54.43 301.7 12 312 11.7
2007-11-20 08:44:13 51°14.787 2°54.412 307 12.1 318 11.7
2007-11-20 08:44:18 51°14.8 2°54.395 314.2 12.2 321 11.6
2007-11-20 08:44:23 51°14.812 2°54.377 317.5 12.2 319 11.5
2007-11-20 08:44:28 51°14.825 2°54.359 317.8 12.2 318 11.6
2007-11-20 08:44:33 51°14.837 2°54.34 316.4 12.2 316 11.6
2007-11-20 08:44:38 51°14.85 2°54.322 315 12.2 317 11.5
2007-11-20 08:44:43 51°14.862 2°54.303 314.8 12.3 317 11.8
2007-11-20 08:44:48 51°14.874 2°54.285 315 12.3 318 11.7
2007-11-20 08:44:53 51°14.887 2°54.267 316.2 12.3 318 11.4
2007-11-20 08:44:58 51°14.9 2°54.249 316.9 12.4 320 11.3
2007-11-20 08:45:03 51°14.914 2°54.232 318.6 12.4 322 11.1
2007-11-20 08:45:08 51°14.928 2°54.217 321 12.4 326 10.9
2007-11-20 08:45:13 51°14.943 2°54.202 324.2 12.4 328 10.9
2007-11-20 08:45:18 51°14.958 2°54.189 327.6 12.5 331 10.9
2007-11-20 08:45:23 51°14.973 2°54.175 329.8 12.5 329 10.8
2007-11-20 08:45:28 51°14.988 2°54.161 330.4 12.5 330 10.9
2007-11-20 08:45:33 51°15.003 2°54.147 330.6 12.5 330 10.9
2007-11-20 08:45:38 51°15.018 2°54.133 330.4 12.6 330 10.9
2007-11-20 08:45:43 51°15.033 2°54.119 330.4 12.6 330 10.9
2007-11-20 08:45:48 51°15.048 2°54.105 330.4 12.6 330 10.9
2007-11-20 08:45:53 51°15.063 2°54.091 330.2 12.6 328 10.9
2007-11-20 08:45:58 51°15.078 2°54.076 329.2 12.6 327 11
2007-11-20 08:46:03 51°15.093 2°54.061 328.2 12.6 328 11
2007-11-20 08:46:08 51°15.107 2°54.046 327.8 12.5 327 11
2007-11-20 08:46:13 51°15.122 2°54.031 327.3 12.6 328 11.4
2007-11-20 08:46:18 51°15.137 2°54.017 327.6 12.6 329 11.3
2007-11-20 08:46:23 51°15.152 2°54.004 328.2 12.7 332 11.4
2007-11-20 08:46:28 51°15.168 2°53.991 330.7 12.7 334 11.3
2007-11-20 08:46:33 51°15.184 2°53.979 332.4 12.7 335 11.4
2007-11-20 08:46:38 51°15.2 2°53.968 334.3 12.7 336 11.4
2007-11-20 08:46:43 51°15.216 2°53.957 335.4 12.7 337 11.4
2007-11-20 08:46:48 51°15.233 2°53.946 336.3 12.7 337 11.5
2007-11-20 08:46:53 51°15.249 2°53.936 337.2 12.7 338 11.5
2007-11-20 08:46:58 51°15.265 2°53.925 337.7 12.7 338 11.5
2007-11-20 08:47:03 51°15.282 2°53.916 338.2 12.7 339 11.5
2007-11-20 08:47:08 51°15.299 2°53.905 338.8 12.8 339 11.7
2007-11-20 08:47:13 51°15.315 2°53.895 339 12.8 339 11.8
2007-11-20 08:47:18 51°15.332 2°53.885 339.4 12.8 339 12
2007-11-20 08:47:23 51°15.348 2°53.874 339 12.7 337 11.9
2007-11-20 08:47:28 51°15.364 2°53.863 336.8 12.7 336 11.9
2007-11-20 08:47:33 51°15.38 2°53.851 335.5 12.6 334 11.9
2007-11-20 08:47:38 51°15.396 2°53.838 334.4 12.6 333 11.9
2007-11-20 08:47:43 51°15.411 2°53.825 332.8 12.6 331 12.1
2007-11-20 08:47:48 51°15.426 2°53.811 331.2 12.6 331 12
2007-11-20 08:47:53 51°15.441 2°53.797 330.2 12.6 330 12
2007-11-20 08:47:58 51°15.456 2°53.783 329.1 12.6 330 12.1
2007-11-20 08:48:03 51°15.471 2°53.769 328.5 12.6 329 12.2
2007-11-20 08:48:08 51°15.486 2°53.755 328 12.6 330 12.2
2007-11-20 08:48:13 51°15.501 2°53.741 328 12.6 330 12.4
2007-11-20 08:48:18 51°15.517 2°53.727 328.1 12.6 331 12.4
2007-11-20 08:48:23 51°15.532 2°53.714 328.9 12.6 332 12.4
2007-11-20 08:48:28 51°15.548 2°53.701 330 12.6 332 12.4
2007-11-20 08:48:33 51°15.564 2°53.688 330.7 12.7 333 12.5
2007-11-20 08:48:38 51°15.579 2°53.676 331.5 12.7 333 12.5
2007-11-20 08:48:43 51°15.595 2°53.664 331.9 12.7 334 12.6
2007-11-20 08:48:48 51°15.611 2°53.651 332.3 12.7 334 12.6
2007-11-20 08:48:53 51°15.627 2°53.639 332.5 12.7 334 12.6
2007-11-20 08:48:58 51°15.642 2°53.627 332.5 12.7 334 12.7
2007-11-20 08:49:03 51°15.658 2°53.614 332.4 12.6 333 12.7
2007-11-20 08:49:08 51°15.673 2°53.601 331.8 12.6 332 12.7
2007-11-20 08:49:13 51°15.689 2°53.588 331 12.6 332 12.8
2007-11-20 08:49:18 51°15.704 2°53.574 330.5 12.6 331 12.8
2007-11-20 08:49:23 51°15.719 2°53.561 329.7 12.6 331 12.9
2007-11-20 08:49:28 51°15.735 2°53.547 329.3 12.6 330 12.9
2007-11-20 08:49:33 51°15.75 2°53.534 328.7 12.6 331 13
2007-11-20 08:49:38 51°15.765 2°53.52 328.7 12.6 331 13.1
2007-11-20 08:49:43 51°15.781 2°53.507 328.8 12.6 332 13.1
2007-11-20 08:49:48 51°15.796 2°53.494 329.2 12.6 333 13.1
2007-11-20 08:49:53 51°15.812 2°53.481 330.2 12.6 333 13.1
2007-11-20 08:49:58 51°15.828 2°53.469 330.9 12.7 334 13.2
2007-11-20 08:50:03 51°15.843 2°53.456 331.6 12.7 333 13.2
2007-11-20 08:50:08 51°15.859 2°53.444 331.7 12.7 334 13.1
2007-11-20 08:50:13 51°15.875 2°53.432 332 12.7 334 13.2
2007-11-20 08:50:18 51°15.891 2°53.42 332 12.7 334 13.3
2007-11-20 08:50:23 51°15.906 2°53.407 332 12.7 334 13.3
2007-11-20 08:50:28 51°15.922 2°53.395 331.8 12.7 333 13.3
2007-11-20 08:50:33 51°15.938 2°53.382 331.6 12.7 333 13.3
2007-11-20 08:50:38 51°15.953 2°53.369 331.4 12.7 333 13.4
2007-11-20 08:50:43 51°15.969 2°53.357 331.2 12.7 333 13.4
2007-11-20 08:50:48 51°15.985 2°53.344 331 12.7 333 13.4
2007-11-20 08:50:53 51°16 2°53.331 331.1 12.7 333 13.4
2007-11-20 08:50:58 51°16.016 2°53.319 331 12.7 333 13.5
2007-11-20 08:51:03 51°16.032 2°53.306 330.9 12.7 333 13.5
2007-11-20 08:51:08 51°16.047 2°53.293 330.9 12.7 333 13.5
2007-11-20 08:51:13 51°16.063 2°53.281 330.9 12.7 334 13.5
2007-11-20 08:51:18 51°16.079 2°53.268 331.1 12.8 334 13.5
2007-11-20 08:51:23 51°16.095 2°53.256 331.6 12.8 334 13.5
2007-11-20 08:51:28 51°16.111 2°53.244 331.7 12.7 334 13.6
2007-11-20 08:51:33 51°16.126 2°53.232 332 12.7 335 13.6
2007-11-20 08:51:38 51°16.143 2°53.219 332.2 12.7 335 13.6
2007-11-20 08:51:43 51°16.158 2°53.207 332.3 12.7 334 13.6
2007-11-20 08:51:48 51°16.174 2°53.195 332.3 12.7 334 13.6
2007-11-20 08:51:53 51°16.19 2°53.182 332 12.7 333 13.6
2007-11-20 08:51:58 51°16.206 2°53.17 331.7 12.7 333 13.5
2007-11-20 08:52:03 51°16.221 2°53.156 331 12.7 332 13.6
2007-11-20 08:52:08 51°16.237 2°53.143 330.2 12.7 332 13.6
2007-11-20 08:52:13 51°16.252 2°53.13 329.8 12.6 331 13.6
2007-11-20 08:52:18 51°16.268 2°53.117 329.3 12.7 332 13.7
2007-11-20 08:52:23 51°16.283 2°53.103 329.3 12.7 332 13.6
2007-11-20 08:52:28 51°16.299 2°53.091 329.3 12.6 332 13.6
2007-11-20 08:52:33 51°16.314 2°53.078 329.5 12.7 333 13.6
2007-11-20 08:52:38 51°16.33 2°53.066 330.2 12.7 335 13.7
2007-11-20 08:52:43 51°16.346 2°53.054 331.5 12.8 336 13.6
2007-11-20 08:52:48 51°16.363 2°53.043 333 12.8 337 13.6
2007-11-20 08:52:53 51°16.379 2°53.032 334 12.8 337 13.6
2007-11-20 08:52:58 51°16.396 2°53.021 334.8 12.8 338 13.6
2007-11-20 08:53:03 51°16.412 2°53.011 335.4 12.8 338 13.6
2007-11-20 08:53:08 51°16.429 2°53 336 12.9 339 13.6
2007-11-20 08:53:13 51°16.446 2°52.99 336.4 12.9 339 13.7
2007-11-20 08:53:18 51°16.463 2°52.98 336.7 12.9 339 13.6
2007-11-20 08:53:23 51°16.479 2°52.97 337 12.8 339 13.6
2007-11-20 08:53:28 51°16.496 2°52.96 337.1 12.9 339 13.6
2007-11-20 08:53:33 51°16.513 2°52.95 337.1 12.9 339 13.5
2007-11-20 08:53:38 51°16.53 2°52.94 337.3 12.8 339 13.6
2007-11-20 08:53:43 51°16.546 2°52.929 336.7 12.8 338 13.6
2007-11-20 08:53:48 51°16.563 2°52.918 335.8 12.8 338 13.5
2007-11-20 08:53:53 51°16.579 2°52.907 335.2 12.8 336 13.5
2007-11-20 08:53:58 51°16.595 2°52.895 334 12.8 336 13.4
2007-11-20 08:54:03 51°16.611 2°52.883 333.1 12.7 335 13.5
2007-11-20 08:54:08 51°16.627 2°52.871 332.3 12.7 335 13.4
2007-11-20 08:54:13 51°16.643 2°52.859 331.9 12.7 334 13.4
2007-11-20 08:54:18 51°16.659 2°52.847 331.4 12.7 334 13.3
2007-11-20 08:54:23 51°16.675 2°52.834 331 12.7 334 13.1
2007-11-20 08:54:28 51°16.691 2°52.822 331.3 12.8 335 13
2007-11-20 08:54:33 51°16.707 2°52.81 331.7 12.8 335 12.9
2007-11-20 08:54:38 51°16.724 2°52.799 332.2 12.8 336 12.9
2007-11-20 08:54:43 51°16.74 2°52.788 332.9 12.7 336 12.5
2007-11-20 08:54:48 51°16.755 2°52.776 333.3 12.7 336 12.3
2007-11-20 08:54:53 51°16.772 2°52.765 333.6 12.8 337 11.9
2007-11-20 08:54:58 51°16.788 2°52.754 333.9 12.8 337 11.7
2007-11-20 08:55:03 51°16.804 2°52.743 334.4 12.8 336 11.6
2007-11-20 08:55:08 51°16.82 2°52.731 334.4 12.8 336 11.6
2007-11-20 08:55:13 51°16.836 2°52.72 334.4 12.8 336 11.5
2007-11-20 08:55:18 51°16.852 2°52.708 334.4 12.8 336 11.5
2007-11-20 08:55:23 51°16.868 2°52.696 334 12.8 335 11.2
2007-11-20 08:55:28 51°16.884 2°52.685 333.8 12.8 336 11.4
2007-11-20 08:55:33 51°16.9 2°52.673 333.9 12.8 335 11.5
2007-11-20 08:55:38 51°16.916 2°52.661 334 12.8 335 11.5
2007-11-20 08:55:43 51°16.932 2°52.648 333.6 12.8 334 11.6
2007-11-20 08:55:48 51°16.948 2°52.636 333.3 12.9 335 11.7
2007-11-20 08:55:53 51°16.964 2°52.624 333.4 12.8 334 11.8
2007-11-20 08:55:58 51°16.98 2°52.612 333.5 12.8 335 12.1
2007-11-20 08:56:03 51°16.996 2°52.599 333.8 12.8 335 12
2007-11-20 08:56:08 51°17.012 2°52.588 333.8 12.8 335 11.9
2007-11-20 08:56:13 51°17.028 2°52.575 333.9 12.8 335 11.6
2007-11-20 08:56:18 51°17.045 2°52.564 334 12.8 336 11.6
2007-11-20 08:56:23 51°17.061 2°52.552 334.2 12.8 335 11.6
2007-11-20 08:56:28 51°17.077 2°52.54 334.3 12.8 335 11.5
2007-11-20 08:56:33 51°17.093 2°52.528 334.2 12.8 335 11.6
2007-11-20 08:56:38 51°17.109 2°52.516 334.2 12.8 335 11.6
2007-11-20 08:56:43 51°17.125 2°52.504 334.1 12.8 335 11.6
2007-11-20 08:56:48 51°17.141 2°52.492 333.8 12.8 335 11.7
2007-11-20 08:56:53 51°17.158 2°52.48 334 12.8 336 11.9
2007-11-20 08:56:58 51°17.174 2°52.469 334.2 12.9 336 11.9
2007-11-20 08:57:03 51°17.19 2°52.457 334.5 12.9 336 11.8
2007-11-20 08:57:08 51°17.207 2°52.445 334.8 12.9 336 12
2007-11-20 08:57:13 51°17.223 2°52.433 334.8 12.8 335 11.9
2007-11-20 08:57:18 51°17.239 2°52.421 334.5 12.8 335 12.1
2007-11-20 08:57:23 51°17.255 2°52.409 333.9 12.8 335 12.1
2007-11-20 08:57:28 51°17.271 2°52.397 333.8 12.8 334 12.2
2007-11-20 08:57:33 51°17.287 2°52.384 333.3 12.7 333 12.2
2007-11-20 08:57:38 51°17.303 2°52.371 332.4 12.7 333 12.3
2007-11-20 08:57:43 51°17.319 2°52.358 331.7 12.8 332 12.2
2007-11-20 08:57:48 51°17.334 2°52.345 331.2 12.8 332 12.4
2007-11-20 08:57:53 51°17.35 2°52.332 330.8 12.8 332 12.3
2007-11-20 08:57:58 51°17.365 2°52.319 330.4 12.8 333 12.3
2007-11-20 08:58:03 51°17.381 2°52.306 330.9 12.8 334 12.4
2007-11-20 08:58:08 51°17.397 2°52.293 331.8 12.8 334 12.4
2007-11-20 08:58:13 51°17.413 2°52.281 332.5 12.8 335 12.3
2007-11-20 08:58:18 51°17.429 2°52.269 333.2 12.8 335 12.4
2007-11-20 08:58:23 51°17.446 2°52.258 334.2 12.9 336 12.3
2007-11-20 08:58:28 51°17.462 2°52.246 334.5 12.9 335 12.4
2007-11-20 08:58:33 51°17.478 2°52.234 334.5 12.9 335 12.4
2007-11-20 08:58:38 51°17.494 2°52.222 334.2 12.9 335 12.4
2007-11-20 08:58:43 51°17.51 2°52.21 334.2 12.8 335 12.4
2007-11-20 08:58:48 51°17.526 2°52.198 334.3 12.9 335 12.5
2007-11-20 08:58:53 51°17.543 2°52.186 334.2 12.9 335 12.4
2007-11-20 08:58:58 51°17.559 2°52.174 334.1 12.9 336 12.4
2007-11-20 08:59:03 51°17.575 2°52.163 334.2 12.9 336 12.4
2007-11-20 08:59:08 51°17.592 2°52.151 334.8 12.9 335 12.3
2007-11-20 08:59:13 51°17.608 2°52.14 334.9 12.9 336 12.4
2007-11-20 08:59:18 51°17.624 2°52.128 334.9 12.9 336 12.4
2007-11-20 08:59:23 51°17.64 2°52.116 335 12.9 336 12.4
2007-11-20 08:59:28 51°17.657 2°52.105 335.3 12.9 337 12.3
2007-11-20 08:59:33 51°17.673 2°52.094 335.4 12.9 337 12.3
2007-11-20 08:59:38 51°17.69 2°52.082 335.8 12.9 336 12.3
2007-11-20 08:59:43 51°17.706 2°52.071 335.7 13 336 12.3
2007-11-20 08:59:48 51°17.722 2°52.059 335.5 13 336 12.2
2007-11-20 08:59:53 51°17.739 2°52.047 335.2 13 336 12.3
2007-11-20 08:59:58 51°17.755 2°52.035 334.8 12.9 335 12.3
2007-11-20 09:00:03 51°17.771 2°52.023 334.6 12.9 335 12.3
2007-11-20 09:00:08 51°17.787 2°52.011 334.1 12.9 335 12.3
2007-11-20 09:00:13 51°17.803 2°51.999 334 12.9 334 12.3
2007-11-20 09:00:18 51°17.819 2°51.987 333.4 12.9 334 12.3
2007-11-20 09:00:23 51°17.835 2°51.974 333.1 12.8 333 12.2
2007-11-20 09:00:28 51°17.851 2°51.961 332.4 12.8 333 12.2
2007-11-20 09:00:33 51°17.867 2°51.948 332 12.8 332 12.3
2007-11-20 09:00:38 51°17.883 2°51.935 331.6 12.8 333 12.2
2007-11-20 09:00:43 51°17.898 2°51.921 331.6 12.8 333 12.2
2007-11-20 09:00:48 51°17.915 2°51.909 331.8 12.8 335 12.4
2007-11-20 09:00:53 51°17.931 2°51.897 333.1 12.9 335 12.3
2007-11-20 09:00:58 51°17.947 2°51.885 334 12.9 336 12.3
2007-11-20 09:01:03 51°17.963 2°51.873 334.5 12.9 335 12.3
2007-11-20 09:01:08 51°17.979 2°51.862 334.8 12.9 336 12.4
2007-11-20 09:01:13 51°17.996 2°51.85 335 12.9 335 12.4
2007-11-20 09:01:18 51°18.012 2°51.838 335.3 12.9 336 12.4
2007-11-20 09:01:23 51°18.028 2°51.827 335.3 13 336 12.6
2007-11-20 09:01:28 51°18.045 2°51.815 335.3 12.9 336 12.4
2007-11-20 09:01:33 51°18.061 2°51.803 335.5 12.9 336 12.6
2007-11-20 09:01:38 51°18.078 2°51.792 335.6 13 336 12.7
2007-11-20 09:01:43 51°18.094 2°51.78 335.4 12.9 336 12.6
2007-11-20 09:01:48 51°18.11 2°51.768 335.3 12.9 336 12.9
2007-11-20 09:01:53 51°18.127 2°51.756 335.3 12.9 335 12.8
2007-11-20 09:01:58 51°18.143 2°51.744 335.1 12.9 335 12.8
2007-11-20 09:02:03 51°18.159 2°51.732 334.8 12.9 335 13
2007-11-20 09:02:08 51°18.176 2°51.72 334.7 12.9 335 13
2007-11-20 09:02:13 51°18.192 2°51.708 334.7 12.9 335 13.1
2007-11-20 09:02:18 51°18.208 2°51.696 334.5 12.9 334 13.3
2007-11-20 09:02:23 51°18.224 2°51.684 333.9 12.9 335 13.2
2007-11-20 09:02:28 51°18.24 2°51.671 334 12.9 334 13.4
2007-11-20 09:02:33 51°18.256 2°51.659 333.9 12.9 335 13.4
2007-11-20 09:02:38 51°18.273 2°51.647 334 12.9 335 13.6
2007-11-20 09:02:43 51°18.289 2°51.635 334.1 13 335 13.7
2007-11-20 09:02:48 51°18.305 2°51.623 334.2 13 335 13.7
2007-11-20 09:02:53 51°18.322 2°51.611 334.5 13 336 13.8
2007-11-20 09:02:58 51°18.338 2°51.599 335 13 336 13.9
2007-11-20 09:03:03 51°18.355 2°51.587 335.2 13 335 14
2007-11-20 09:03:08 51°18.371 2°51.575 335 13 336 14.1
2007-11-20 09:03:13 51°18.387 2°51.563 334.6 12.9 335 14.3
2007-11-20 09:03:18 51°18.404 2°51.551 334.3 13 335 14.3
2007-11-20 09:03:23 51°18.42 2°51.539 334.3 13 336 14.4
2007-11-20 09:03:28 51°18.436 2°51.527 334.5 13 336 14.5
2007-11-20 09:03:33 51°18.453 2°51.516 334.7 13 336 14.6
2007-11-20 09:03:38 51°18.47 2°51.504 335 13 336 14.8
2007-11-20 09:03:43 51°18.486 2°51.492 335 13.1 336 14.8
2007-11-20 09:03:48 51°18.503 2°51.48 334.7 13.1 336 14.9
2007-11-20 09:03:53 51°18.519 2°51.468 334.5 13 336 15.1
2007-11-20 09:03:58 51°18.536 2°51.457 334.3 13 336 15.1
2007-11-20 09:04:03 51°18.552 2°51.445 334.4 13 336 15.2
2007-11-20 09:04:08 51°18.568 2°51.433 334 13 336 15.3
2007-11-20 09:04:13 51°18.585 2°51.421 333.8 13 335 15.4
2007-11-20 09:04:18 51°18.601 2°51.409 333.8 13 336 15.5
2007-11-20 09:04:23 51°18.618 2°51.397 333.8 13 337 15.6
2007-11-20 09:04:28 51°18.634 2°51.386 334.1 13 336 15.6
2007-11-20 09:04:33 51°18.651 2°51.374 334.5 13 337 15.8
2007-11-20 09:04:38 51°18.667 2°51.363 334.8 13 336 15.9
2007-11-20 09:04:43 51°18.684 2°51.351 334.9 12.9 336 15.9
2007-11-20 09:04:48 51°18.7 2°51.34 334.6 13 336 15.9
2007-11-20 09:04:53 51°18.717 2°51.328 334.4 13 336 16
2007-11-20 09:04:58 51°18.733 2°51.316 334.1 13 336 16
2007-11-20 09:05:03 51°18.75 2°51.304 333.8 13 335 16.2
2007-11-20 09:05:08 51°18.766 2°51.292 333.9 12.9 336 16
2007-11-20 09:05:13 51°18.782 2°51.281 334 13 336 16.2
2007-11-20 09:05:18 51°18.799 2°51.269 334.1 12.9 336 16.3
2007-11-20 09:05:23 51°18.815 2°51.257 334.5 12.9 336 16.2
2007-11-20 09:05:28 51°18.832 2°51.246 334.5 12.9 336 16.3
2007-11-20 09:05:33 51°18.848 2°51.235 334.9 13 337 16.4
2007-11-20 09:05:38 51°18.865 2°51.223 334.9 13 337 16.4
2007-11-20 09:05:43 51°18.881 2°51.212 335 13 336 16.5
2007-11-20 09:05:48 51°18.897 2°51.2 334.8 13 336 16.5
2007-11-20 09:05:53 51°18.914 2°51.188 334.6 12.9 335 16.4
2007-11-20 09:05:58 51°18.93 2°51.176 333.9 12.8 335 16.7
2007-11-20 09:06:03 51°18.946 2°51.164 333.7 12.8 334 16.6
2007-11-20 09:06:08 51°18.962 2°51.151 332.9 12.8 334 16.6
2007-11-20 09:06:13 51°18.978 2°51.139 332.7 12.8 334 16.6
2007-11-20 09:06:18 51°18.994 2°51.127 332.2 12.8 334 16.7
2007-11-20 09:06:23 51°19.01 2°51.115 332.7 12.8 334 16.7
2007-11-20 09:06:28 51°19.026 2°51.103 332.7 12.8 334 16.7
2007-11-20 09:06:33 51°19.042 2°51.09 332.7 12.8 334 16.8
2007-11-20 09:06:38 51°19.058 2°51.078 332.8 12.8 334 16.8
2007-11-20 09:06:43 51°19.074 2°51.065 332.6 12.7 334 16.7
2007-11-20 09:06:48 51°19.09 2°51.054 332.6 12.8 335 16.7
2007-11-20 09:06:53 51°19.106 2°51.041 333.1 12.8 334 16.7
2007-11-20 09:06:58 51°19.122 2°51.03 333.4 12.8 336 16.8
2007-11-20 09:07:03 51°19.138 2°51.018 333.9 12.8 335 16.7
2007-11-20 09:07:08 51°19.154 2°51.006 334.5 12.8 335 16.8
2007-11-20 09:07:13 51°19.17 2°50.994 334.5 12.8 335 16.7
2007-11-20 09:07:18 51°19.186 2°50.982 334.5 12.7 335 16.7
2007-11-20 09:07:23 51°19.202 2°50.971 334.4 12.7 335 16.7
2007-11-20 09:07:28 51°19.218 2°50.959 334.4 12.7 334 16.7
2007-11-20 09:07:33 51°19.234 2°50.947 334.3 12.7 335 16.7
2007-11-20 09:07:38 51°19.25 2°50.935 334.3 12.7 334 16.7
2007-11-20 09:07:43 51°19.266 2°50.923 334.4 12.8 336 16.4
2007-11-20 09:07:48 51°19.282 2°50.911 334.8 12.8 335 16.3
2007-11-20 09:07:53 51°19.298 2°50.899 334.6 12.7 335 16.3
2007-11-20 09:07:58 51°19.314 2°50.888 334.7 12.8 336 16.3
2007-11-20 09:08:03 51°19.331 2°50.876 335.1 12.8 336 16.3
2007-11-20 09:08:08 51°19.347 2°50.864 335.2 12.8 336 16.2
2007-11-20 09:08:13 51°19.363 2°50.853 335.3 12.8 336 16.2
2007-11-20 09:08:18 51°19.379 2°50.841 335.3 12.8 334 16
2007-11-20 09:08:23 51°19.395 2°50.829 334.5 12.8 335 15.9
2007-11-20 09:08:28 51°19.411 2°50.816 333.8 12.8 334 15.8
2007-11-20 09:08:33 51°19.427 2°50.804 334 12.8 334 15.7
2007-11-20 09:08:38 51°19.443 2°50.792 333.8 12.8 334 15.5
2007-11-20 09:08:43 51°19.459 2°50.78 333.8 12.8 335 15.1
2007-11-20 09:08:48 51°19.475 2°50.768 334 12.8 335 14.9
2007-11-20 09:08:53 51°19.491 2°50.756 334.4 12.8 335 14.7
2007-11-20 09:08:58 51°19.507 2°50.744 334.7 12.8 335 14.6
2007-11-20 09:09:03 51°19.523 2°50.733 335 12.8 336 14.3
2007-11-20 09:09:08 51°19.539 2°50.721 335.2 12.8 336 14.3
2007-11-20 09:09:13 51°19.555 2°50.709 335.3 12.8 336 14.1
2007-11-20 09:09:18 51°19.572 2°50.698 335.1 12.7 336 14.1
2007-11-20 09:09:23 51°19.587 2°50.686 335 12.7 335 14.1
2007-11-20 09:09:28 51°19.604 2°50.674 334.7 12.7 335 14.2
2007-11-20 09:09:33 51°19.62 2°50.662 334.7 12.8 335 14
2007-11-20 09:09:38 51°19.636 2°50.651 334.3 12.7 335 13.8
2007-11-20 09:09:43 51°19.652 2°50.639 334.2 12.7 335 13.5
2007-11-20 09:09:48 51°19.668 2°50.627 334.4 12.7 335 13.6
2007-11-20 09:09:53 51°19.684 2°50.616 334.4 12.7 336 13.3
2007-11-20 09:09:58 51°19.7 2°50.604 334.6 12.7 335 13.4
2007-11-20 09:10:03 51°19.716 2°50.592 334.5 12.7 335 13.8
2007-11-20 09:10:08 51°19.732 2°50.581 334.3 12.7 336 13.8
2007-11-20 09:10:13 51°19.748 2°50.569 334.5 12.6 335 13.9
2007-11-20 09:10:18 51°19.764 2°50.557 334.2 12.7 336 14.1
2007-11-20 09:10:23 51°19.78 2°50.546 334.2 12.7 335 14.1
2007-11-20 09:10:28 51°19.796 2°50.534 334.4 12.7 336 14.3
2007-11-20 09:10:33 51°19.812 2°50.523 334.3 12.7 336 14.6
2007-11-20 09:10:38 51°19.828 2°50.511 334.6 12.8 336 14.7
2007-11-20 09:10:43 51°19.845 2°50.5 334.5 12.8 337 14.9
2007-11-20 09:10:48 51°19.861 2°50.488 335 12.8 336 15.1
2007-11-20 09:10:53 51°19.877 2°50.477 335 12.8 337 15.5
2007-11-20 09:10:58 51°19.893 2°50.466 335 12.8 336 15.6
2007-11-20 09:11:03 51°19.91 2°50.454 335.2 12.8 336 15.8
2007-11-20 09:11:08 51°19.926 2°50.443 334.9 12.8 335 16
2007-11-20 09:11:13 51°19.942 2°50.431 334.5 12.8 336 16.2
2007-11-20 09:11:18 51°19.958 2°50.419 334.1 12.8 335 16.4
2007-11-20 09:11:23 51°19.974 2°50.408 333.8 12.8 336 16.5
2007-11-20 09:11:28 51°19.99 2°50.395 333.5 12.8 334 16.8
2007-11-20 09:11:33 51°20.007 2°50.383 333.1 12.8 335 17
2007-11-20 09:11:38 51°20.023 2°50.372 332.7 12.8 335 17.1
2007-11-20 09:11:43 51°20.039 2°50.36 332.7 12.8 335 17.2
2007-11-20 09:11:48 51°20.055 2°50.348 333.1 12.8 336 17.5
2007-11-20 09:11:53 51°20.072 2°50.337 333.6 12.8 337 17.5
2007-11-20 09:11:58 51°20.088 2°50.326 334.3 12.8 337 17.5
2007-11-20 09:12:03 51°20.104 2°50.315 334.5 12.8 337 17.7
2007-11-20 09:12:08 51°20.121 2°50.304 334.6 12.8 337 17.5
2007-11-20 09:12:13 51°20.137 2°50.292 334.7 12.8 337 17.5
2007-11-20 09:12:18 51°20.153 2°50.282 334.9 12.8 337 17.7
2007-11-20 09:12:23 51°20.17 2°50.27 334.8 12.8 336 17.7
2007-11-20 09:12:28 51°20.186 2°50.259 334.4 12.9 337 17.9
2007-11-20 09:12:33 51°20.202 2°50.248 334.4 12.8 336 18
2007-11-20 09:12:38 51°20.219 2°50.237 334.4 12.8 337 18.2
2007-11-20 09:12:43 51°20.235 2°50.226 334.1 12.9 337 18.5
2007-11-20 09:12:48 51°20.252 2°50.214 334.5 12.9 337 18.7
2007-11-20 09:12:53 51°20.268 2°50.204 334.7 12.9 337 19
2007-11-20 09:12:58 51°20.285 2°50.193 334.8 12.9 338 19.3
2007-11-20 09:13:03 51°20.301 2°50.182 335 12.9 338 19.5
2007-11-20 09:13:08 51°20.318 2°50.171 335.2 12.9 337 19.8
2007-11-20 09:13:13 51°20.334 2°50.159 334.9 12.8 337 20
2007-11-20 09:13:18 51°20.35 2°50.148 334.6 12.9 337 20.3
2007-11-20 09:13:23 51°20.367 2°50.136 334.3 12.9 335 20.6
2007-11-20 09:13:28 51°20.383 2°50.125 333.6 12.9 337 20.8
2007-11-20 09:13:33 51°20.399 2°50.114 333.8 12.8 336 20.9
2007-11-20 09:13:38 51°20.416 2°50.102 333.8 12.9 337 21.3
2007-11-20 09:13:43 51°20.432 2°50.091 333.8 12.9 337 21.5
2007-11-20 09:13:48 51°20.449 2°50.079 334.3 12.9 336 21.8
2007-11-20 09:13:53 51°20.465 2°50.068 334.4 12.9 337 22
2007-11-20 09:13:58 51°20.482 2°50.057 334.4 12.9 337 22.2
2007-11-20 09:14:03 51°20.499 2°50.046 334.5 13 337 22.4
2007-11-20 09:14:08 51°20.515 2°50.035 334.7 12.9 337 22.6
2007-11-20 09:14:13 51°20.531 2°50.024 334.3 12.9 337 22.9
2007-11-20 09:14:18 51°20.548 2°50.013 334.4 12.9 337 23.2
2007-11-20 09:14:23 51°20.564 2°50.001 334.5 13 337 23.4
2007-11-20 09:14:28 51°20.581 2°49.99 334.5 13 337 23.5
2007-11-20 09:14:33 51°20.598 2°49.98 334.5 13 338 23.6
2007-11-20 09:14:38 51°20.614 2°49.968 335.1 12.9 337 23.9
2007-11-20 09:14:43 51°20.631 2°49.958 334.9 12.9 338 24.1
2007-11-20 09:14:48 51°20.647 2°49.946 334.7 12.9 337 24.2
2007-11-20 09:14:53 51°20.663 2°49.935 334.7 12.9 337 24.1
2007-11-20 09:14:58 51°20.68 2°49.924 334.5 12.9 337 24.1
2007-11-20 09:15:03 51°20.696 2°49.913 334.4 12.9 337 24.1
2007-11-20 09:15:08 51°20.713 2°49.902 334.2 12.9 337 24.3
2007-11-20 09:15:13 51°20.729 2°49.891 334 12.9 337 24.5
2007-11-20 09:15:18 51°20.746 2°49.879 334 12.9 336 24.7
2007-11-20 09:15:23 51°20.762 2°49.868 333.6 12.9 337 24.6
2007-11-20 09:15:28 51°20.779 2°49.856 333.7 12.9 336 24.7
2007-11-20 09:15:33 51°20.795 2°49.845 333.4 12.9 336 24.6
2007-11-20 09:15:38 51°20.811 2°49.833 333.3 12.9 337 24.6
2007-11-20 09:15:43 51°20.828 2°49.822 333.5 12.9 336 24.6
2007-11-20 09:15:48 51°20.844 2°49.811 333.5 12.9 337 24.7
2007-11-20 09:15:53 51°20.861 2°49.8 334.1 13 338 24.7
2007-11-20 09:15:58 51°20.878 2°49.789 334.6 13 337 24.7
2007-11-20 09:16:03 51°20.894 2°49.778 334.5 13 338 24.7
2007-11-20 09:16:08 51°20.911 2°49.767 334.5 13 337 24.6
2007-11-20 09:16:13 51°20.928 2°49.756 334.4 13 338 24.6
2007-11-20 09:16:18 51°20.944 2°49.745 334.5 13 337 24.7
2007-11-20 09:16:23 51°20.961 2°49.734 334.1 13 337 24.7
2007-11-20 09:16:28 51°20.978 2°49.723 334.2 13 337 24.6
2007-11-20 09:16:33 51°20.994 2°49.711 334.3 13 336 24.6
2007-11-20 09:16:38 51°21.011 2°49.7 334 13 337 24.7
2007-11-20 09:16:43 51°21.027 2°49.688 333.9 13 337 24.7
2007-11-20 09:16:48 51°21.044 2°49.677 334 13.1 337 24.9
2007-11-20 09:16:53 51°21.06 2°49.665 334.1 13 336 24.8
2007-11-20 09:16:58 51°21.077 2°49.654 334.1 13 337 24.6
2007-11-20 09:17:03 51°21.094 2°49.643 334.1 13.1 337 24.5
2007-11-20 09:17:08 51°21.111 2°49.632 334.5 13 337 24.4
2007-11-20 09:17:13 51°21.127 2°49.621 334.6 13 337 24.3
2007-11-20 09:17:18 51°21.144 2°49.609 335 13 337 24.5
2007-11-20 09:17:23 51°21.161 2°49.599 334.7 13.1 338 24.2
2007-11-20 09:17:28 51°21.177 2°49.587 335.2 13.1 338 24.1
2007-11-20 09:17:33 51°21.194 2°49.577 335.2 13.1 338 24.1
2007-11-20 09:17:38 51°21.211 2°49.565 335.2 13.1 337 23.9
2007-11-20 09:17:43 51°21.228 2°49.554 334.9 13.1 338 23.9
2007-11-20 09:17:48 51°21.244 2°49.543 334.5 13 336 23.8
2007-11-20 09:17:53 51°21.261 2°49.532 334 13 337 24
2007-11-20 09:17:58 51°21.277 2°49.52 334 13 335 23.9
2007-11-20 09:18:03 51°21.293 2°49.508 333.8 13 336 23.9
2007-11-20 09:18:08 51°21.31 2°49.496 332.9 13 336 23.9
2007-11-20 09:18:13 51°21.326 2°49.483 332.8 13 334 23.8
2007-11-20 09:18:18 51°21.343 2°49.472 332.8 13 336 23.8
2007-11-20 09:18:23 51°21.359 2°49.459 333.2 12.9 334 23.7
2007-11-20 09:18:28 51°21.375 2°49.448 333.3 13 336 23.6
2007-11-20 09:18:33 51°21.391 2°49.435 333.7 12.9 333 23.6
2007-11-20 09:18:38 51°21.408 2°49.424 333.3 13 336 23.3
2007-11-20 09:18:43 51°21.424 2°49.411 333.3 12.9 333 23.3
2007-11-20 09:18:48 51°21.44 2°49.399 333.4 12.9 335 23.3
2007-11-20 09:18:53 51°21.456 2°49.387 333.9 12.9 334 23.5
2007-11-20 09:18:58 51°21.473 2°49.375 333.8 12.9 336 23.5
2007-11-20 09:19:03 51°21.489 2°49.362 334.4 12.9 334 23.6
2007-11-20 09:19:08 51°21.505 2°49.351 334.5 12.9 336 23.7
2007-11-20 09:19:13 51°21.521 2°49.339 334.8 12.9 335 23.6
2007-11-20 09:19:18 51°21.538 2°49.328 334.9 12.9 336 23.7
2007-11-20 09:19:23 51°21.554 2°49.316 335 12.9 336 23.8
2007-11-20 09:19:28 51°21.57 2°49.304 335.1 12.9 336 23.9
2007-11-20 09:19:33 51°21.587 2°49.293 335.2 12.9 337 23.9
2007-11-20 09:19:38 51°21.603 2°49.282 335.3 12.9 337 23.8
2007-11-20 09:19:43 51°21.62 2°49.271 335.3 13 339 23.9
2007-11-20 09:19:48 51°21.637 2°49.26 335.6 13 338 24.1
2007-11-20 09:19:53 51°21.654 2°49.249 335.5 13 337 24.1
2007-11-20 09:19:58 51°21.67 2°49.238 334.8 13.1 338 24.1
2007-11-20 09:20:03 51°21.687 2°49.226 334.8 13 335 24.3
2007-11-20 09:20:08 51°21.704 2°49.215 333.8 13 337 24.6
2007-11-20 09:20:13 51°21.72 2°49.203 333.6 13.1 336 24.6
2007-11-20 09:20:18 51°21.737 2°49.192 333.5 13.1 337 24.8
2007-11-20 09:20:23 51°21.754 2°49.181 334 13.1 338 24.9
2007-11-20 09:20:28 51°21.77 2°49.17 334.5 13.1 337 25.1
2007-11-20 09:20:33 51°21.787 2°49.158 334.5 13.1 338 25
2007-11-20 09:20:38 51°21.804 2°49.147 334.5 13 336 24.9
2007-11-20 09:20:43 51°21.821 2°49.136 334.4 13.1 338 24.9
2007-11-20 09:20:48 51°21.837 2°49.124 334.4 13.1 336 25.1
2007-11-20 09:20:53 51°21.854 2°49.114 334.5 13.1 338 25
2007-11-20 09:20:58 51°21.871 2°49.102 334.7 13 337 24.8
2007-11-20 09:21:03 51°21.887 2°49.091 334.8 13 338 24.9
2007-11-20 09:21:08 51°21.904 2°49.08 334.7 12.9 337 25
2007-11-20 09:21:13 51°21.921 2°49.069 334.5 12.9 337 25
2007-11-20 09:21:18 51°21.937 2°49.059 334.5 12.9 338 25
2007-11-20 09:21:23 51°21.953 2°49.047 334.4 12.8 336 25.1
2007-11-20 09:21:28 51°21.97 2°49.036 333.8 12.8 338 25
2007-11-20 09:21:33 51°21.986 2°49.025 334 12.9 337 24.9
2007-11-20 09:21:38 51°22.003 2°49.014 333.9 12.8 338 24.9
2007-11-20 09:21:43 51°22.019 2°49.003 334 12.8 338 24.9
2007-11-20 09:21:48 51°22.036 2°48.993 334.3 12.8 338 24.9
2007-11-20 09:21:53 51°22.052 2°48.982 334.2 12.9 338 25
2007-11-20 09:21:58 51°22.069 2°48.971 334.4 12.9 338 25.1
2007-11-20 09:22:03 51°22.085 2°48.96 334.6 12.9 337 25
2007-11-20 09:22:08 51°22.102 2°48.95 334.3 12.8 338 25.1
2007-11-20 09:22:13 51°22.118 2°48.939 334.5 12.8 338 25
2007-11-20 09:22:18 51°22.135 2°48.928 334.2 12.9 337 25.1
2007-11-20 09:22:23 51°22.151 2°48.917 334 12.8 338 25.3
2007-11-20 09:22:28 51°22.167 2°48.906 333.9 12.8 337 25.3
2007-11-20 09:22:33 51°22.184 2°48.895 333.9 12.8 337 25.3
2007-11-20 09:22:38 51°22.2 2°48.884 334.3 12.8 337 25.3
2007-11-20 09:22:43 51°22.216 2°48.872 333.9 12.6 332 24.9
2007-11-20 09:22:48 51°22.231 2°48.858 331.3 12.6 332 25.1
2007-11-20 09:22:53 51°22.246 2°48.844 328.6 12.6 329 24.7
2007-11-20 09:22:58 51°22.261 2°48.83 326.4 12.6 328 24.9
2007-11-20 09:23:03 51°22.275 2°48.814 324.5 12.5 325 24.8
2007-11-20 09:23:08 51°22.289 2°48.797 323 12.4 323 24.5
2007-11-20 09:23:13 51°22.302 2°48.779 319.9 12.2 317 24.3
2007-11-20 09:23:18 51°22.314 2°48.761 315.4 12.2 318 23.9
2007-11-20 09:23:23 51°22.326 2°48.742 313.7 12.1 315 23.6
2007-11-20 09:23:28 51°22.338 2°48.723 311.6 12.2 314 23.2
2007-11-20 09:23:33 51°22.349 2°48.703 310 12 312 22.7
2007-11-20 09:23:38 51°22.36 2°48.683 308.9 12.1 311 22.1
2007-11-20 09:23:43 51°22.369 2°48.661 307.4 11.9 304 21.8
2007-11-20 09:23:48 51°22.378 2°48.639 302.6 11.8 303 21.2
2007-11-20 09:23:53 51°22.386 2°48.616 299 11.7 298 21.1
2007-11-20 09:23:58 51°22.394 2°48.593 295.9 11.8 299 20.9
2007-11-20 09:24:03 51°22.401 2°48.57 294.2 11.6 295 21
2007-11-20 09:24:08 51°22.407 2°48.546 292.8 11.5 293 20.7
2007-11-20 09:24:13 51°22.411 2°48.522 289.8 11.3 285 19.9
2007-11-20 09:24:18 51°22.415 2°48.498 284.3 11.3 285 20.2
2007-11-20 09:24:23 51°22.417 2°48.473 280.6 11.2 278 20
2007-11-20 09:24:28 51°22.42 2°48.448 277.4 11.3 280 20
2007-11-20 09:24:33 51°22.421 2°48.424 275.4 11.1 275 20.5
2007-11-20 09:24:38 51°22.423 2°48.399 273 11.1 276 20.6
2007-11-20 09:24:43 51°22.423 2°48.374 272 11.2 272 19.5
2007-11-20 09:24:48 51°22.425 2°48.349 270.3 11.3 274 19.5
2007-11-20 09:24:53 51°22.425 2°48.324 270 11.2 271 19.7
2007-11-20 09:24:58 51°22.426 2°48.299 269 11.3 274 19.8
2007-11-20 09:25:03 51°22.427 2°48.274 269.6 11.3 274 19.8
2007-11-20 09:25:08 51°22.428 2°48.249 271 11.4 276 19.7
2007-11-20 09:25:13 51°22.43 2°48.224 271.8 11.4 277 19.8
2007-11-20 09:25:18 51°22.432 2°48.199 273.4 11.5 277 19.6
2007-11-20 09:25:23 51°22.435 2°48.174 274.2 11.5 281 19.5
2007-11-20 09:25:28 51°22.438 2°48.149 275.9 11.4 279 19.1
2007-11-20 09:25:33 51°22.441 2°48.124 276 11.5 281 19.1
2007-11-20 09:25:38 51°22.444 2°48.099 276.7 11.5 280 19
2007-11-20 09:25:43 51°22.446 2°48.074 276.9 11.5 281 18.9
2007-11-20 09:25:48 51°22.45 2°48.049 277.1 11.5 281 18.9
2007-11-20 09:25:53 51°22.453 2°48.023 277.2 11.6 281 18.7
2007-11-20 09:25:58 51°22.456 2°47.998 277.1 11.5 281 18.3
2007-11-20 09:26:03 51°22.459 2°47.973 277.1 11.4 280 17.7
2007-11-20 09:26:08 51°22.462 2°47.949 276.8 11.5 282 16.4
2007-11-20 09:26:13 51°22.464 2°47.924 276.6 11.5 280 14.9
2007-11-20 09:26:18 51°22.468 2°47.898 276.6 11.6 282 13.8
2007-11-20 09:26:23 51°22.471 2°47.873 276.6 11.4 280 15.3
2007-11-20 09:26:28 51°22.474 2°47.849 276 11.4 280 17.5
2007-11-20 09:26:33 51°22.476 2°47.824 275.9 11.4 278 18.5
2007-11-20 09:26:38 51°22.479 2°47.799 274.6 11.5 280 19.2
2007-11-20 09:26:43 51°22.481 2°47.774 275 11.5 280 19.7
2007-11-20 09:26:48 51°22.484 2°47.748 275 11.5 280 20
2007-11-20 09:26:53 51°22.487 2°47.724 275.3 11.4 280 20.5
2007-11-20 09:26:58 51°22.489 2°47.699 276.2 11.4 280 20.9
2007-11-20 09:27:03 51°22.493 2°47.673 276.7 11.6 281 20.9
2007-11-20 09:27:08 51°22.496 2°47.648 276.9 11.6 281 20.9
2007-11-20 09:27:12 51°22.499 2°47.628 277.2 11.6 282 20.7
2007-11-20 09:27:18 51°22.503 2°47.598 277.8 11.6 282 20.1
2007-11-20 09:27:23 51°22.506 2°47.573 278.3 11.6 282 19.1
2007-11-20 09:27:28 51°22.509 2°47.548 277.9 11.7 282 17.9
2007-11-20 09:27:33 51°22.513 2°47.522 278.2 11.7 283 16.7
2007-11-20 09:27:38 51°22.517 2°47.497 278.5 11.7 283 16
2007-11-20 09:27:43 51°22.521 2°47.472 279.1 11.6 285 16.5
2007-11-20 09:27:49 51°22.525 2°47.443 279.3 11.5 283 18.2
2007-11-20 09:27:53 51°22.528 2°47.423 279.1 11.5 282 18.9
2007-11-20 09:27:57 51°22.531 2°47.403 278.7 11.5 283 19.5
2007-11-20 09:28:03 51°22.535 2°47.373 277.9 11.5 281 20.1
2007-11-20 09:28:09 51°22.539 2°47.342 277.7 11.6 282 20.3
2007-11-20 09:28:13 51°22.541 2°47.322 277.5 11.6 281 20.7
2007-11-20 09:28:18 51°22.545 2°47.297 277.5 11.6 283 20.9
2007-11-20 09:28:23 51°22.548 2°47.272 277.9 11.5 282 20.8
2007-11-20 09:28:29 51°22.552 2°47.242 277.9 11.6 282 20.9
2007-11-20 09:28:33 51°22.554 2°47.222 277.7 11.7 282 20.7
2007-11-20 09:28:39 51°22.558 2°47.192 277.7 11.6 282 20.5
2007-11-20 09:28:43 51°22.561 2°47.172 277.9 11.6 283 20.5
2007-11-20 09:28:47 51°22.564 2°47.152 278.1 11.6 283 19.7
2007-11-20 09:28:53 51°22.569 2°47.122 278.8 11.6 284 18
2007-11-20 09:28:59 51°22.574 2°47.092 279 11.6 284 16.5
2007-11-20 09:29:03 51°22.577 2°47.072 279.3 11.5 284 18.1
2007-11-20 09:29:09 51°22.581 2°47.042 279.5 11.6 283 19.1
2007-11-20 09:29:13 51°22.583 2°47.022 278.7 11.6 281 19.7
2007-11-20 09:29:19 51°22.587 2°46.992 277.2 11.5 281 20
2007-11-20 09:29:23 51°22.589 2°46.972 276.6 11.5 279 20.3
2007-11-20 09:29:29 51°22.592 2°46.941 275.4 11.5 279 20.4
2007-11-20 09:29:33 51°22.594 2°46.921 274.7 11.5 278 20.5
2007-11-20 09:29:39 51°22.596 2°46.891 274 11.5 278 20.5
2007-11-20 09:29:43 51°22.598 2°46.871 273.7 11.6 278 20.7
2007-11-20 09:29:49 51°22.601 2°46.84 273.8 11.6 279 20.9
2007-11-20 09:29:53 51°22.603 2°46.82 274.3 11.6 279 21.3
2007-11-20 09:29:58 51°22.606 2°46.795 275 11.6 280 21.7
2007-11-20 09:30:03 51°22.609 2°46.77 275.5 11.5 279 22.1
2007-11-20 09:30:09 51°22.612 2°46.739 275.1 11.6 280 22.5
2007-11-20 09:30:13 51°22.614 2°46.719 275 11.6 281 22.5
2007-11-20 09:30:18 51°22.617 2°46.693 275.9 11.7 281 22.3
2007-11-20 09:30:23 51°22.621 2°46.668 276.3 11.7 282 21.4
2007-11-20 09:30:29 51°22.624 2°46.638 277 11.6 281 19
2007-11-20 09:30:33 51°22.627 2°46.617 276.7 11.5 281 17.6
2007-11-20 09:30:39 51°22.63 2°46.587 276.5 11.6 280 19.8
2007-11-20 09:30:43 51°22.633 2°46.567 275.9 11.6 282 21.2
2007-11-20 09:30:49 51°22.636 2°46.537 276 11.5 279 22.3
2007-11-20 09:30:53 51°22.638 2°46.517 275.2 11.5 280 22.9
2007-11-20 09:30:59 51°22.641 2°46.486 275.2 11.5 280 23.1
2007-11-20 09:31:03 51°22.644 2°46.466 275.4 11.6 280 23.5
2007-11-20 09:31:07 51°22.646 2°46.446 275.6 11.7 279 23.5
2007-11-20 09:31:13 51°22.649 2°46.415 274.9 11.7 280 23.7
2007-11-20 09:31:18 51°22.651 2°46.389 275.1 11.6 279 23.6
2007-11-20 09:31:23 51°22.654 2°46.364 275.2 11.6 279 23.8
2007-11-20 09:31:29 51°22.657 2°46.333 275 11.6 279 23.9
2007-11-20 09:31:33 51°22.66 2°46.313 275.3 11.8 281 24
2007-11-20 09:31:39 51°22.664 2°46.282 275.7 11.7 281 24.2
2007-11-20 09:31:43 51°22.666 2°46.262 276.4 11.7 281 24.5
2007-11-20 09:31:49 51°22.67 2°46.232 276.4 11.7 282 24.5
2007-11-20 09:31:53 51°22.672 2°46.211 276.5 11.6 280 24.3
2007-11-20 09:31:59 51°22.676 2°46.181 275.8 11.7 281 24.4
2007-11-20 09:32:03 51°22.678 2°46.16 276.1 11.7 280 24.6
2007-11-20 09:32:09 51°22.682 2°46.13 276.3 11.8 281 24.9
2007-11-20 09:32:13 51°22.684 2°46.109 276 11.7 279 24
2007-11-20 09:32:19 51°22.686 2°46.079 275.1 11.6 278 20.8
2007-11-20 09:32:23 51°22.688 2°46.058 273.4 11.6 277 23.2
2007-11-20 09:32:29 51°22.69 2°46.028 272.8 11.6 276 24.1
2007-11-20 09:32:33 51°22.691 2°46.007 271.5 11.6 276 24.7
2007-11-20 09:32:38 51°22.692 2°45.982 271 11.5 275 25
2007-11-20 09:32:43 51°22.693 2°45.956 270.7 11.5 273 25.3
2007-11-20 09:32:49 51°22.695 2°45.926 269.8 11.6 276 25.6
2007-11-20 09:32:53 51°22.696 2°45.905 270.5 11.6 275 25.8
2007-11-20 09:32:59 51°22.699 2°45.874 270.4 11.8 278 25.8
2007-11-20 09:33:04 51°22.701 2°45.848 272.1 11.7 277 25.8
2007-11-20 09:33:09 51°22.704 2°45.822 272.8 11.8 279 25.5
2007-11-20 09:33:13 51°22.705 2°45.802 273 11.8 279 24.4
2007-11-20 09:33:18 51°22.708 2°45.776 273.6 11.8 278 22.8
2007-11-20 09:33:24 51°22.711 2°45.746 273.6 11.7 279 24
2007-11-20 09:33:29 51°22.712 2°45.72 273.6 11.7 276 25
2007-11-20 09:33:33 51°22.714 2°45.699 272.7 11.8 277 25.5
2007-11-20 09:33:39 51°22.716 2°45.668 272.3 11.8 276 25.9
2007-11-20 09:33:43 51°22.718 2°45.647 272.1 11.8 277 25.7
2007-11-20 09:33:49 51°22.72 2°45.616 271.9 11.7 276 25.8
2007-11-20 09:33:53 51°22.722 2°45.596 271.6 11.8 277 25.8
2007-11-20 09:33:59 51°22.724 2°45.564 271.9 11.7 278 25.4
2007-11-20 09:34:03 51°22.726 2°45.544 272.6 11.7 278 24.7
2007-11-20 09:34:09 51°22.728 2°45.513 272.9 11.7 277 22.7
2007-11-20 09:34:13 51°22.73 2°45.493 272.8 11.7 279 23.1
2007-11-20 09:34:19 51°22.733 2°45.462 273.3 11.6 277 24.3
2007-11-20 09:34:24 51°22.735 2°45.436 272.9 11.7 276 25.6
2007-11-20 09:34:29 51°22.737 2°45.411 272.2 11.7 277 26.2
2007-11-20 09:34:33 51°22.737 2°45.39 272.1 11.6 274 27
2007-11-20 09:34:39 51°22.74 2°45.36 270.5 11.6 277 27.3
2007-11-20 09:34:44 51°22.741 2°45.334 271.2 11.6 275 27.7
2007-11-20 09:34:49 51°22.743 2°45.309 270.9 11.6 276 27.9
2007-11-20 09:34:53 51°22.744 2°45.288 270.7 11.6 275 28.2
2007-11-20 09:34:59 51°22.746 2°45.258 270.7 11.6 276 28.3
2007-11-20 09:35:03 51°22.747 2°45.237 270.4 11.6 275 28.4
2007-11-20 09:35:09 51°22.749 2°45.206 271.1 11.7 277 28.3
2007-11-20 09:35:13 51°22.751 2°45.186 272 11.7 276 28.3
2007-11-20 09:35:18 51°22.753 2°45.16 272.1 11.7 277 28.4
2007-11-20 09:35:24 51°22.755 2°45.129 272.4 11.7 277 28.5
2007-11-20 09:35:29 51°22.758 2°45.103 272.9 11.7 278 28.1
2007-11-20 09:35:33 51°22.759 2°45.083 273.2 11.7 277 26.1
2007-11-20 09:35:38 51°22.762 2°45.057 273 11.7 279 27.2
2007-11-20 09:35:44 51°22.764 2°45.026 273.6 11.7 276 27.7
2007-11-20 09:35:49 51°22.766 2°45.001 273.2 11.7 278 27.3
2007-11-20 09:35:53 51°22.767 2°44.98 273 11.7 275 26.2
2007-11-20 09:35:59 51°22.769 2°44.949 272.3 11.6 275 27.6
2007-11-20 09:36:04 51°22.77 2°44.924 271.6 11.6 275 28.1
2007-11-20 09:36:07 51°22.771 2°44.909 271.2 11.5 274 28.3
2007-11-20 09:36:14 51°22.773 2°44.873 270.9 11.6 275 28.1
2007-11-20 09:36:19 51°22.775 2°44.847 270.9 11.7 277 26.9
2007-11-20 09:36:24 51°22.776 2°44.822 272.6 11.6 275 27.3
2007-11-20 09:36:29 51°22.779 2°44.796 272.6 11.6 278 27.6
2007-11-20 09:36:33 51°22.779 2°44.776 273.2 11.5 275 27.4
2007-11-20 09:36:39 51°22.782 2°44.745 272.7 11.5 277 27.1
2007-11-20 09:36:44 51°22.783 2°44.72 273.1 11.5 274 27.6
2007-11-20 09:36:49 51°22.785 2°44.695 272.9 11.4 275 27.5
2007-11-20 09:36:53 51°22.785 2°44.675 272.1 11.3 273 27.5
2007-11-20 09:36:59 51°22.787 2°44.645 271.3 11.3 275 27.5
2007-11-20 09:37:04 51°22.788 2°44.62 271.6 11.2 274 27.8
2007-11-20 09:37:09 51°22.789 2°44.596 271.7 11.2 274 27.5
2007-11-20 09:37:13 51°22.79 2°44.576 271.9 11.2 274 25.4
2007-11-20 09:37:18 51°22.791 2°44.551 272.1 11.1 275 27.7
2007-11-20 09:37:24 51°22.792 2°44.522 272.4 11.1 275 28
2007-11-20 09:37:29 51°22.794 2°44.497 272 11.2 275 28.1
2007-11-20 09:37:33 51°22.795 2°44.477 272.4 11.1 275 26.8
2007-11-20 09:37:38 51°22.796 2°44.453 272.2 11.1 275 27.4
2007-11-20 09:37:44 51°22.797 2°44.423 272.2 11.1 275 26.3
2007-11-20 09:37:49 51°22.798 2°44.399 272.1 11.1 273 27.8
2007-11-20 09:37:53 51°22.799 2°44.379 271.2 11.2 274 28.1
2007-11-20 09:37:59 51°22.8 2°44.349 271.2 11.2 274 27.9
2007-11-20 09:38:04 51°22.802 2°44.325 271.8 11.2 275 26.6
2007-11-20 09:38:09 51°22.804 2°44.3 272.1 11.2 276 28
2007-11-20 09:38:14 51°22.805 2°44.275 272.9 11.2 275 27.9
2007-11-20 09:38:19 51°22.806 2°44.251 273 11.2 276 28.2
2007-11-20 09:38:24 51°22.808 2°44.226 272.9 11.2 275 27.9
2007-11-20 09:38:29 51°22.809 2°44.202 272.8 11.1 275 28.3
2007-11-20 09:38:33 51°22.809 2°44.182 271.9 11.1 271 27.6
2007-11-20 09:38:39 51°22.809 2°44.153 270.1 11.1 271 25.9
2007-11-20 09:38:44 51°22.809 2°44.128 268.5 11 269 27.9
2007-11-20 09:38:49 51°22.809 2°44.104 267.2 11 270 27.3
2007-11-20 09:38:53 51°22.809 2°44.085 266.4 10.9 268 26
2007-11-20 09:38:59 51°22.808 2°44.056 265.5 10.9 267 28.4
2007-11-20 09:39:04 51°22.807 2°44.031 264.7 10.9 267 28.4
2007-11-20 09:39:09 51°22.806 2°44.007 264.2 10.9 267 26.8
2007-11-20 09:39:13 51°22.806 2°43.988 263.6 11 269 27.7
2007-11-20 09:39:19 51°22.806 2°43.958 264.9 11.1 270 28.1
2007-11-20 09:39:24 51°22.806 2°43.934 266.3 11 271 27.7
2007-11-20 09:39:29 51°22.806 2°43.909 267.4 11 271 26.3
2007-11-20 09:39:33 51°22.807 2°43.89 267.9 11.1 273 28.5
2007-11-20 09:39:38 51°22.808 2°43.865 269 11.1 272 28.1
2007-11-20 09:39:44 51°22.809 2°43.836 269.4 11.1 274 27.3
2007-11-20 09:39:49 51°22.81 2°43.811 270.1 11.2 273 28.1
2007-11-20 09:39:53 51°22.811 2°43.791 270.4 11.2 274 27.9
2007-11-20 09:39:59 51°22.812 2°43.761 270.4 11.2 272 25.8
2007-11-20 09:40:03 51°22.813 2°43.741 269.7 11.2 274 27.8
2007-11-20 09:40:09 51°22.813 2°43.712 269.4 11.1 272 28.7
2007-11-20 09:40:13 51°22.814 2°43.692 269.3 11.2 273 28.5
2007-11-20 09:40:19 51°22.815 2°43.662 269.4 11.2 272 28
2007-11-20 09:40:23 51°22.816 2°43.642 269 11.2 274 27
2007-11-20 09:40:27 51°22.816 2°43.622 269.4 11.2 273 27.6
2007-11-20 09:40:33 51°22.818 2°43.592 269.8 11.3 273 28.3
2007-11-20 09:40:39 51°22.819 2°43.562 269.8 11.3 274 26.4
2007-11-20 09:40:43 51°22.819 2°43.543 269.7 11.1 273 26.5
2007-11-20 09:40:49 51°22.82 2°43.513 269.6 11.1 273 25.4
2007-11-20 09:40:53 51°22.821 2°43.493 269 11.1 272 27.3
2007-11-20 09:40:59 51°22.821 2°43.464 268.7 11.1 273 25.6
2007-11-20 09:41:04 51°22.822 2°43.439 268.9 11.1 272 26.8
2007-11-20 09:41:09 51°22.823 2°43.415 268.5 11.1 273 27.4
2007-11-20 09:41:13 51°22.823 2°43.395 268.5 11.1 272 27.4
2007-11-20 09:41:18 51°22.824 2°43.371 268.2 11.1 274 27.4
2007-11-20 09:41:24 51°22.824 2°43.341 268.8 11.1 272 26
2007-11-20 09:41:29 51°22.826 2°43.317 268.8 11.2 274 26.9
2007-11-20 09:41:33 51°22.826 2°43.297 269.1 11.1 272 26.6
2007-11-20 09:41:38 51°22.827 2°43.272 269.3 11.2 273 26.7
2007-11-20 09:41:43 51°22.827 2°43.247 268.8 11.1 272 26
2007-11-20 09:41:49 51°22.828 2°43.218 268.7 11.2 272 25.9
2007-11-20 09:41:53 51°22.828 2°43.198 268.1 11.2 271 27.8
2007-11-20 09:41:58 51°22.829 2°43.173 267.8 11.1 271 26.1
2007-11-20 09:42:04 51°22.829 2°43.144 267.3 11.1 271 27.1
2007-11-20 09:42:09 51°22.829 2°43.119 267.2 11.1 270 27.9
2007-11-20 09:42:13 51°22.829 2°43.099 267 11.1 272 28.3
2007-11-20 09:42:19 51°22.83 2°43.07 267.1 11.2 271 27.7
2007-11-20 09:42:24 51°22.831 2°43.045 267.4 11.1 273 26
2007-11-20 09:42:28 51°22.831 2°43.026 268.6 11.1 272 27.2
2007-11-20 09:42:33 51°22.832 2°43.001 268.5 11.1 274 28
2007-11-20 09:42:39 51°22.833 2°42.971 268.8 11.2 273 28
2007-11-20 09:42:44 51°22.834 2°42.946 269.2 11.2 272 27.9
2007-11-20 09:42:49 51°22.834 2°42.921 268.9 11.2 273 27.3
2007-11-20 09:42:53 51°22.835 2°42.902 268.5 11.2 273 27.7
2007-11-20 09:42:59 51°22.836 2°42.872 268.7 11.2 273 27.7
2007-11-20 09:43:04 51°22.837 2°42.847 268.5 11.2 273 28.2
2007-11-20 09:43:09 51°22.838 2°42.822 268.5 11.2 272 27.1
2007-11-20 09:43:14 51°22.839 2°42.797 268.5 11.2 274 27.1
2007-11-20 09:43:19 51°22.839 2°42.773 268.6 11.2 273 27.9
2007-11-20 09:43:24 51°22.84 2°42.748 269 11.2 273 27.8
2007-11-20 09:43:29 51°22.841 2°42.723 268.9 11.2 273 27.8
2007-11-20 09:43:33 51°22.842 2°42.703 269 11.2 274 27.4
2007-11-20 09:43:38 51°22.843 2°42.678 269.3 11.2 274 27.3
2007-11-20 09:43:44 51°22.844 2°42.648 269.2 11.2 274 27
2007-11-20 09:43:49 51°22.845 2°42.624 269.2 11.3 273 27.4
2007-11-20 09:43:53 51°22.845 2°42.604 269 11.2 273 27.6
2007-11-20 09:43:58 51°22.847 2°42.579 268.7 11.3 274 28.2
2007-11-20 09:44:04 51°22.847 2°42.549 268.6 11.2 272 28
2007-11-20 09:44:09 51°22.848 2°42.525 268.3 11.1 272 27
2007-11-20 09:44:13 51°22.848 2°42.505 267.2 11.1 273 27.6
2007-11-20 09:44:19 51°22.849 2°42.475 267.7 11.1 271 27.9
2007-11-20 09:44:24 51°22.85 2°42.451 267.5 11.2 273 28
2007-11-20 09:44:29 51°22.851 2°42.426 267.6 11.2 273 28.1
2007-11-20 09:44:33 51°22.851 2°42.406 268.5 11.3 274 26.9
2007-11-20 09:44:39 51°22.853 2°42.376 269 11.2 273 27.5
2007-11-20 09:44:43 51°22.854 2°42.356 268.8 11.2 275 28
2007-11-20 09:44:49 51°22.855 2°42.326 269.1 11.2 274 27.8
2007-11-20 09:44:53 51°22.856 2°42.306 269.1 11.2 274 27.9
2007-11-20 09:44:59 51°22.857 2°42.276 269 11.2 273 28.2
2007-11-20 09:45:04 51°22.857 2°42.251 268.4 11.2 271 28.2
2007-11-20 09:45:09 51°22.858 2°42.226 267.4 11.3 273 28
2007-11-20 09:45:13 51°22.859 2°42.206 267.3 11.3 274 28
2007-11-20 09:45:19 51°22.859 2°42.177 268.3 11.3 272 28.1
2007-11-20 09:45:24 51°22.861 2°42.152 267.8 11.3 275 28
2007-11-20 09:45:29 51°22.862 2°42.126 268.5 11.3 275 27.9
2007-11-20 09:45:34 51°22.863 2°42.101 269.2 11.4 274 27.8
2007-11-20 09:45:39 51°22.864 2°42.076 269 11.5 275 27.9
2007-11-20 09:45:44 51°22.866 2°42.051 269.1 11.5 275 28.2
2007-11-20 09:45:49 51°22.867 2°42.026 269.7 11.5 274 28.2
2007-11-20 09:45:53 51°22.868 2°42.005 268.9 11.6 275 28.4
2007-11-20 09:45:58 51°22.869 2°41.98 269.1 11.6 274 27.6
2007-11-20 09:46:04 51°22.871 2°41.949 268.8 11.5 275 28.1
2007-11-20 09:46:09 51°22.872 2°41.924 269.3 11.5 274 28.6
2007-11-20 09:46:13 51°22.873 2°41.904 269.3 11.4 275 28.8
2007-11-20 09:46:18 51°22.874 2°41.878 269.6 11.4 274 28.7
2007-11-20 09:46:24 51°22.875 2°41.848 269 11.4 274 29.1
2007-11-20 09:46:29 51°22.876 2°41.823 268.5 11.3 273 29.3
2007-11-20 09:46:33 51°22.876 2°41.803 268.3 11.3 271 29.3
2007-11-20 09:46:39 51°22.877 2°41.773 267.4 11.3 273 29
2007-11-20 09:46:44 51°22.877 2°41.749 267.1 11.2 272 29.4
2007-11-20 09:46:49 51°22.878 2°41.724 266.9 11.3 271 29.2
2007-11-20 09:46:53 51°22.878 2°41.703 266.3 11.3 270 29.2
2007-11-20 09:46:59 51°22.879 2°41.673 266.5 11.4 273 29.1
2007-11-20 09:47:04 51°22.879 2°41.648 267.3 11.3 272 29.3
2007-11-20 09:47:09 51°22.879 2°41.623 267.4 11.3 272 29.1
2007-11-20 09:47:13 51°22.88 2°41.603 267.8 11.3 271 28.8
2007-11-20 09:47:19 51°22.88 2°41.573 267.2 11.3 272 28.9
2007-11-20 09:47:23 51°22.88 2°41.553 267.2 11.3 270 29
2007-11-20 09:47:29 51°22.881 2°41.522 267 11.4 271 29
2007-11-20 09:47:34 51°22.881 2°41.497 266.9 11.4 270 29.1
2007-11-20 09:47:39 51°22.881 2°41.472 266.8 11.4 272 28.8
2007-11-20 09:47:44 51°22.881 2°41.447 267.2 11.5 270 29.4
2007-11-20 09:47:49 51°22.881 2°41.421 267.3 11.6 272 29.5
2007-11-20 09:47:53 51°22.882 2°41.4 267.2 11.5 272 30
2007-11-20 09:47:59 51°22.882 2°41.37 268.3 11.6 272 29.7
2007-11-20 09:48:04 51°22.884 2°41.344 268.5 11.5 274 30
2007-11-20 09:48:09 51°22.884 2°41.319 269.4 11.5 273 30.2
2007-11-20 09:48:13 51°22.885 2°41.298 269.8 11.5 274 30.3
2007-11-20 09:48:18 51°22.886 2°41.273 270.1 11.5 272 30.6
2007-11-20 09:48:24 51°22.887 2°41.242 269.4 11.5 273 30.7
2007-11-20 09:48:29 51°22.887 2°41.217 269.1 11.5 271 30.5
2007-11-20 09:48:33 51°22.887 2°41.196 268.6 11.5 271 29.3
2007-11-20 09:48:39 51°22.887 2°41.166 268 11.5 270 29.5
2007-11-20 09:48:44 51°22.888 2°41.141 267.3 11.5 270 30.4
2007-11-20 09:48:49 51°22.888 2°41.115 267 11.4 270 30.5
2007-11-20 09:48:53 51°22.887 2°41.095 267.3 11.4 270 31.2
2007-11-20 09:48:59 51°22.888 2°41.065 266.9 11.3 270 31.3
2007-11-20 09:49:04 51°22.888 2°41.04 267 11.3 270 31.3
2007-11-20 09:49:09 51°22.888 2°41.015 267.8 11.4 271 31.5
2007-11-20 09:49:13 51°22.888 2°40.994 268 11.4 271 31.7
2007-11-20 09:49:17 51°22.889 2°40.974 268.3 11.4 271 31.6
2007-11-20 09:49:24 51°22.889 2°40.939 268.2 11.4 270 31
2007-11-20 09:49:29 51°22.889 2°40.914 267.6 11.4 271 30.5
2007-11-20 09:49:33 51°22.889 2°40.893 267.9 11.4 271 29.4
2007-11-20 09:49:39 51°22.89 2°40.863 268.3 11.5 273 29.7
2007-11-20 09:49:44 51°22.891 2°40.837 268.6 11.4 272 30.3
2007-11-20 09:49:49 51°22.891 2°40.812 268.9 11.5 271 31.1
2007-11-20 09:49:54 51°22.891 2°40.786 268.5 11.5 270 31.1
2007-11-20 09:49:59 51°22.891 2°40.761 267.9 11.5 271 30.9
2007-11-20 09:50:04 51°22.891 2°40.735 267.6 11.6 271 30
2007-11-20 09:50:09 51°22.892 2°40.709 267.7 11.6 272 30.5
2007-11-20 09:50:13 51°22.892 2°40.689 268.6 11.4 271 30.9
2007-11-20 09:50:19 51°22.893 2°40.659 268.5 11.4 272 30.9
2007-11-20 09:50:24 51°22.893 2°40.633 268.7 11.4 271 30.6
2007-11-20 09:50:28 51°22.894 2°40.613 268.8 11.5 273 30.7
2007-11-20 09:50:32 51°22.894 2°40.593 269.2 11.4 271 30.5
2007-11-20 09:50:37 51°22.895 2°40.568 269.2 11.4 273 30.7
2007-11-20 09:50:44 51°22.895 2°40.532 269.5 11.4 270 30.4
2007-11-20 09:50:49 51°22.896 2°40.507 268.4 11.4 272 30.5
2007-11-20 09:50:53 51°22.896 2°40.487 268.4 11.3 270 30.8
2007-11-20 09:50:59 51°22.896 2°40.457 267.8 11.3 272 30.7
2007-11-20 09:51:04 51°22.896 2°40.432 267.9 11.2 271 30.4
2007-11-20 09:51:09 51°22.897 2°40.407 268.2 11.3 272 30.6
2007-11-20 09:51:13 51°22.897 2°40.387 268.3 11.4 270 30.4
2007-11-20 09:51:18 51°22.897 2°40.362 267.8 11.3 271 30.5
2007-11-20 09:51:23 51°22.897 2°40.337 267.9 11.3 269 30.4
2007-11-20 09:51:29 51°22.897 2°40.307 267.3 11.4 269 30.4
2007-11-20 09:51:33 51°22.897 2°40.286 267.2 11.4 271 30.5
2007-11-20 09:51:39 51°22.897 2°40.256 267.3 11.4 269 30.4
2007-11-20 09:51:43 51°22.897 2°40.235 267.3 11.5 272 30.5
2007-11-20 09:51:49 51°22.898 2°40.205 268.5 11.5 272 30.6
2007-11-20 09:51:54 51°22.898 2°40.18 269.5 11.4 272 30.4
2007-11-20 09:51:59 51°22.899 2°40.155 269.6 11.4 272 30.5
2007-11-20 09:52:04 51°22.899 2°40.129 269.9 11.4 271 30.5
2007-11-20 09:52:09 51°22.899 2°40.104 269.4 11.3 271 30.6
2007-11-20 09:52:14 51°22.899 2°40.079 269.3 11.5 269 31
2007-11-20 09:52:19 51°22.899 2°40.053 267.8 11.5 270 30.5
2007-11-20 09:52:24 51°22.899 2°40.028 267.8 11.5 271 30.7
2007-11-20 09:52:29 51°22.899 2°40.002 268.3 11.5 270 30.9
2007-11-20 09:52:33 51°22.9 2°39.982 268.6 11.5 272 31.3
2007-11-20 09:52:39 51°22.9 2°39.951 269.3 11.4 270 31.5
2007-11-20 09:52:44 51°22.901 2°39.926 269.1 11.5 272 31.2
2007-11-20 09:52:49 51°22.901 2°39.9 269.5 11.5 271 31.6
2007-11-20 09:52:53 51°22.901 2°39.88 269.1 11.4 271 31.3
2007-11-20 09:52:59 51°22.901 2°39.85 268.9 11.4 271 31.4
2007-11-20 09:53:04 51°22.901 2°39.825 269.3 11.4 270 31.6
2007-11-20 09:53:09 51°22.902 2°39.799 269 11.4 270 31.6
2007-11-20 09:53:13 51°22.901 2°39.779 268.6 11.4 269 31.5
2007-11-20 09:53:18 51°22.901 2°39.754 268.2 11.4 269 31.7